createdAt,value
2022-11-22T00:00:32.016Z,21.67
2022-11-22T00:03:01.963Z,15.98
2022-11-22T00:05:28.838Z,19.88
2022-11-22T00:07:55.689Z,19.98
2022-11-22T00:10:22.692Z,17.25
2022-11-22T00:12:49.689Z,18.70
2022-11-22T00:15:16.677Z,18.42
2022-11-22T00:17:43.567Z,14.18
2022-11-22T00:20:13.737Z,20.27
2022-11-22T00:22:44.554Z,14.05
2022-11-22T00:25:12.467Z,13.32
2022-11-22T00:27:39.387Z,15.98
2022-11-22T00:30:07.554Z,15.52
2022-11-22T00:32:36.392Z,10.52
2022-11-22T00:35:03.490Z,17.88
2022-11-22T00:37:30.353Z,11.02
2022-11-22T00:39:57.405Z,12.55
2022-11-22T00:42:24.214Z,13.55
2022-11-22T00:44:51.064Z,12.57
2022-11-22T00:47:17.859Z,15.75
2022-11-22T00:49:44.796Z,14.95
2022-11-22T00:52:11.594Z,18.15
2022-11-22T00:54:38.481Z,15.20
2022-11-22T00:57:05.417Z,21.02
2022-11-22T00:59:32.441Z,13.57
2022-11-22T01:01:59.470Z,19.05
2022-11-22T01:04:26.376Z,12.48
2022-11-22T01:06:53.161Z,15.68
2022-11-22T01:09:22.441Z,10.23
2022-11-22T01:11:50.046Z,10.18
2022-11-22T01:14:17.897Z,14.82
2022-11-22T01:16:45.463Z,11.15
2022-11-22T01:19:12.613Z,15.77
2022-11-22T01:21:40.069Z,9.60
2022-11-22T01:24:07.538Z,12.50
2022-11-22T01:26:35.013Z,15.90
2022-11-22T01:29:01.908Z,13.43
2022-11-22T01:31:30.085Z,12.88
2022-11-22T01:33:58.890Z,10.13
2022-11-22T01:36:26.599Z,12.23
2022-11-22T01:38:53.710Z,14.25
2022-11-22T01:41:20.785Z,16.08
2022-11-22T01:43:47.629Z,12.80
2022-11-22T01:46:34.450Z,12.48
2022-11-22T01:49:15.136Z,12.23
2022-11-22T01:51:46.411Z,10.88
2022-11-22T01:54:22.203Z,12.07
2022-11-22T01:56:54.702Z,10.38
2022-11-22T01:59:24.895Z,6.72
2022-11-22T02:01:52.510Z,8.85
2022-11-22T02:04:23.646Z,9.60
2022-11-22T02:07:12.759Z,11.57
2022-11-22T02:09:42.392Z,10.02
2022-11-22T02:12:12.015Z,9.57
2022-11-22T02:14:41.002Z,17.50
2022-11-22T02:17:08.005Z,9.18
2022-11-22T02:19:46.961Z,13.88
2022-11-22T02:22:35.416Z,10.80
2022-11-22T02:25:08.022Z,9.57
2022-11-22T02:27:34.951Z,12.13
2022-11-22T02:30:01.874Z,11.20
2022-11-22T02:32:28.758Z,9.43
2022-11-22T02:34:55.568Z,9.82
2022-11-22T02:37:30.411Z,9.35
2022-11-22T02:40:08.116Z,8.90
2022-11-22T02:42:35.967Z,12.60
2022-11-22T02:45:02.778Z,10.48
2022-11-22T02:47:29.659Z,9.82
2022-11-22T02:49:56.497Z,11.43
2022-11-22T02:52:23.389Z,12.40
2022-11-22T02:54:50.194Z,10.05
2022-11-22T02:57:17.150Z,13.10
2022-11-22T02:59:43.988Z,14.38
2022-11-22T03:02:10.918Z,7.35
2022-11-22T03:04:37.810Z,14.25
2022-11-22T03:07:04.803Z,14.05
2022-11-22T03:09:32.416Z,5.35
2022-11-22T03:11:59.954Z,9.45
2022-11-22T03:14:26.860Z,14.70
2022-11-22T03:16:53.798Z,7.53
2022-11-22T03:19:20.701Z,6.50
2022-11-22T03:21:47.744Z,14.95
2022-11-22T03:24:14.602Z,12.07
2022-11-22T03:26:46.035Z,9.90
2022-11-22T03:29:12.946Z,12.25
2022-11-22T03:31:39.742Z,11.77
2022-11-22T03:34:06.619Z,10.73
2022-11-22T03:36:33.401Z,12.00
2022-11-22T03:39:00.353Z,9.15
2022-11-22T03:41:27.194Z,11.52
2022-11-22T03:43:54.078Z,11.13
2022-11-22T03:46:21.083Z,12.95
2022-11-22T03:48:47.982Z,11.27
2022-11-22T03:51:14.767Z,6.30
2022-11-22T03:53:41.843Z,14.10
2022-11-22T03:56:08.924Z,13.45
2022-11-22T03:58:36.014Z,13.43
2022-11-22T04:01:03.136Z,13.05
2022-11-22T04:03:30.581Z,9.55
2022-11-22T04:05:57.624Z,11.57
2022-11-22T04:08:24.535Z,10.45
2022-11-22T04:10:52.544Z,12.52
2022-11-22T04:13:20.023Z,10.95
2022-11-22T04:15:47.009Z,15.07
2022-11-22T04:18:15.007Z,13.57
2022-11-22T04:21:00.990Z,20.08
2022-11-22T04:23:33.488Z,7.53
2022-11-22T04:26:01.016Z,12.93
2022-11-22T04:28:47.007Z,14.88
2022-11-22T04:31:33.336Z,11.57
2022-11-22T04:34:00.258Z,11.23
2022-11-22T04:36:27.032Z,10.13
2022-11-22T04:38:53.873Z,9.23
2022-11-22T04:41:20.810Z,8.85
2022-11-22T04:44:06.446Z,10.68
2022-11-22T04:46:33.334Z,8.77
2022-11-22T04:49:00.111Z,7.50
2022-11-22T04:51:45.604Z,12.55
2022-11-22T04:54:12.436Z,13.52
2022-11-22T04:56:39.204Z,10.00
2022-11-22T04:59:06.122Z,10.45
2022-11-22T05:01:33.045Z,9.00
2022-11-22T05:03:59.886Z,8.60
2022-11-22T05:06:26.727Z,8.27
2022-11-22T05:08:53.631Z,9.23
2022-11-22T05:11:20.494Z,6.07
2022-11-22T05:13:47.519Z,5.13
2022-11-22T05:16:15.730Z,9.35
2022-11-22T05:18:42.638Z,6.90
2022-11-22T05:21:14.456Z,5.43
2022-11-22T05:23:56.880Z,9.82
2022-11-22T05:26:33.588Z,8.27
2022-11-22T05:29:07.996Z,9.50
2022-11-22T05:31:37.109Z,10.77
2022-11-22T05:34:05.142Z,11.15
2022-11-22T05:36:33.549Z,12.70
2022-11-22T05:39:00.983Z,7.25
2022-11-22T05:41:28.236Z,11.32
2022-11-22T05:43:56.540Z,15.68
2022-11-22T05:46:26.771Z,9.88
2022-11-22T05:48:56.165Z,7.32
2022-11-22T05:51:30.671Z,20.83
2022-11-22T05:54:00.770Z,10.75
2022-11-22T05:56:27.583Z,17.77
2022-11-22T05:58:54.454Z,19.25
2022-11-22T06:01:23.577Z,13.68
2022-11-22T06:03:51.139Z,11.18
2022-11-22T06:06:18.382Z,13.45
2022-11-22T06:08:48.588Z,12.13
2022-11-22T06:11:18.659Z,9.98
2022-11-22T06:13:47.089Z,9.43
2022-11-22T06:16:14.726Z,6.55
2022-11-22T06:18:42.068Z,10.30
2022-11-22T06:21:13.131Z,11.32
2022-11-22T06:23:40.192Z,8.35
2022-11-22T06:26:10.208Z,9.23
2022-11-22T06:28:38.672Z,8.23
2022-11-22T06:31:08.532Z,8.35
2022-11-22T06:33:35.745Z,10.38
2022-11-22T06:36:03.508Z,13.48
2022-11-22T06:38:30.526Z,14.30
2022-11-22T06:41:06.449Z,9.77
2022-11-22T06:43:34.808Z,13.38
2022-11-22T06:46:03.039Z,16.13
2022-11-22T06:48:31.361Z,9.82
2022-11-22T06:51:06.031Z,12.05
2022-11-22T06:53:50.093Z,14.95
2022-11-22T06:56:37.213Z,7.97
2022-11-22T06:59:05.810Z,22.40
2022-11-22T07:01:33.992Z,12.18
2022-11-22T07:04:02.191Z,7.47
2022-11-22T07:06:31.620Z,6.03
2022-11-22T07:09:00.245Z,12.00
2022-11-22T07:11:29.359Z,12.68
2022-11-22T07:14:00.510Z,11.10
2022-11-22T07:16:32.638Z,12.40
2022-11-22T07:19:00.591Z,9.75
2022-11-22T07:21:27.785Z,11.65
2022-11-22T07:23:55.723Z,14.07
2022-11-22T07:26:25.664Z,9.20
2022-11-22T07:28:52.646Z,16.13
2022-11-22T07:31:20.148Z,8.25
2022-11-22T07:33:47.127Z,18.70
2022-11-22T07:36:17.283Z,9.00
2022-11-22T07:38:44.477Z,10.77
2022-11-22T07:41:11.772Z,9.25
2022-11-22T07:43:38.765Z,11.75
2022-11-22T07:46:08.559Z,8.45
2022-11-22T07:48:35.716Z,6.88
2022-11-22T07:51:06.986Z,9.90
2022-11-22T07:53:34.977Z,12.45
2022-11-22T07:56:06.470Z,11.38
2022-11-22T07:58:34.583Z,8.23
2022-11-22T08:01:09.504Z,8.10
2022-11-22T08:03:37.062Z,8.02
2022-11-22T08:06:05.885Z,12.18
2022-11-22T08:08:33.513Z,12.20
2022-11-22T08:11:00.441Z,7.05
2022-11-22T08:13:27.605Z,9.20
2022-11-22T08:15:56.716Z,12.15
2022-11-22T08:18:25.379Z,9.32
2022-11-22T08:20:52.185Z,8.52
2022-11-22T08:23:19.089Z,10.07
2022-11-22T08:25:46.064Z,8.52
2022-11-22T08:28:12.999Z,14.82
2022-11-22T08:30:39.850Z,9.73
2022-11-22T08:33:06.712Z,8.40
2022-11-22T08:35:33.872Z,5.97
2022-11-22T08:38:00.835Z,5.07
2022-11-22T08:40:27.675Z,8.45
2022-11-22T08:42:55.836Z,9.32
2022-11-22T08:45:22.932Z,5.15
2022-11-22T08:47:50.242Z,7.60
2022-11-22T08:50:18.260Z,7.47
2022-11-22T08:52:45.151Z,5.93
2022-11-22T08:55:11.974Z,8.70
2022-11-22T08:57:38.893Z,9.30
2022-11-22T09:00:06.961Z,8.90
2022-11-22T09:02:33.870Z,7.30
2022-11-22T09:05:00.673Z,5.88
2022-11-22T09:10:15.975Z,8.82
2022-11-22T09:12:46.349Z,8.80
2022-11-22T09:15:14.071Z,9.65
2022-11-22T09:17:40.898Z,7.63
2022-11-22T09:20:08.626Z,8.70
2022-11-22T09:22:35.614Z,10.90
2022-11-22T09:25:02.806Z,9.40
2022-11-22T09:27:29.616Z,13.35
2022-11-22T09:29:56.705Z,5.57
2022-11-22T09:32:23.535Z,8.00
2022-11-22T09:34:50.448Z,7.47
2022-11-22T09:37:19.647Z,6.82
2022-11-22T09:39:48.671Z,7.78
2022-11-22T09:42:48.128Z,10.82
2022-11-22T09:45:34.944Z,8.35
2022-11-22T09:48:38.256Z,8.43
2022-11-22T09:51:19.367Z,7.68
2022-11-22T09:54:18.477Z,11.85
2022-11-22T09:56:46.536Z,6.82
2022-11-22T09:59:22.842Z,8.52
2022-11-22T10:02:17.011Z,5.50
2022-11-22T10:04:51.792Z,8.20
2022-11-22T10:07:24.757Z,8.55
2022-11-22T10:10:17.959Z,8.82
2022-11-22T10:12:54.507Z,10.50
2022-11-22T10:15:46.452Z,8.32
2022-11-22T10:18:36.625Z,9.48
2022-11-22T10:21:03.668Z,8.15
2022-11-22T10:23:32.831Z,11.10
2022-11-22T10:26:05.135Z,9.90
2022-11-22T10:28:54.265Z,12.38
2022-11-22T10:31:28.263Z,8.82
2022-11-22T10:34:32.305Z,7.57
2022-11-22T10:37:03.864Z,8.80
2022-11-22T10:39:48.982Z,9.02
2022-11-22T10:42:21.516Z,8.55
2022-11-22T10:44:57.306Z,4.32
2022-11-22T10:48:01.782Z,5.03
2022-11-22T10:50:51.738Z,7.03
2022-11-22T10:54:07.884Z,6.72
2022-11-22T10:56:55.163Z,10.70
2022-11-22T10:59:53.219Z,5.50
2022-11-22T11:02:43.034Z,4.10
2022-11-22T11:05:14.757Z,5.28
2022-11-22T11:07:47.389Z,8.85
2022-11-22T11:10:34.011Z,5.60
2022-11-22T11:13:15.649Z,5.07
2022-11-22T11:15:55.551Z,4.90
2022-11-22T11:18:31.973Z,4.60
2022-11-22T11:20:59.029Z,4.50
2022-11-22T11:23:25.835Z,6.30
2022-11-22T11:25:52.932Z,7.22
2022-11-22T11:28:28.459Z,5.43
2022-11-22T11:31:07.816Z,4.25
2022-11-22T11:33:38.356Z,4.00
2022-11-22T11:36:13.614Z,5.47
2022-11-22T11:38:43.433Z,4.65
2022-11-22T11:41:29.807Z,5.43
2022-11-22T11:43:59.400Z,7.18
2022-11-22T11:46:46.117Z,4.63
2022-11-22T11:49:18.575Z,4.63
2022-11-22T11:51:47.777Z,4.18
2022-11-22T11:54:18.606Z,5.40
2022-11-22T11:57:16.531Z,5.32
2022-11-22T11:59:49.377Z,9.38
2022-11-22T12:02:35.564Z,7.45
2022-11-22T12:05:06.851Z,6.60
2022-11-22T12:07:36.764Z,7.45
2022-11-22T12:10:45.258Z,7.18
2022-11-22T12:13:30.150Z,7.50
2022-11-22T12:16:23.965Z,8.25
2022-11-22T12:19:06.012Z,8.27
2022-11-22T12:22:01.647Z,10.15
2022-11-22T12:25:02.797Z,8.32
2022-11-22T12:27:27.454Z,8.15
2022-11-22T12:29:54.369Z,6.53
2022-11-22T12:32:32.355Z,6.65
2022-11-22T12:35:21.274Z,4.82
2022-11-22T12:37:54.324Z,4.65
2022-11-22T12:40:31.382Z,4.60
2022-11-22T12:43:10.535Z,4.80
2022-11-22T12:45:44.244Z,7.78
2022-11-22T12:48:20.849Z,4.82
2022-11-22T12:50:49.343Z,4.15
2022-11-22T12:53:42.158Z,5.72
2022-11-22T12:56:33.747Z,3.95
2022-11-22T12:59:06.590Z,3.42
2022-11-22T13:01:48.122Z,5.07
2022-11-22T13:04:56.059Z,6.68
2022-11-22T13:07:32.897Z,2.97
2022-11-22T13:10:07.316Z,4.53
2022-11-22T13:12:38.993Z,3.67
2022-11-22T13:15:06.741Z,3.22
2022-11-22T13:17:36.202Z,3.67
2022-11-22T13:20:08.635Z,3.13
2022-11-22T13:22:57.154Z,4.63
2022-11-22T13:25:36.147Z,2.90
2022-11-22T13:28:12.520Z,4.40
2022-11-22T13:30:39.731Z,3.67
2022-11-22T13:33:22.639Z,6.18
2022-11-22T13:35:49.586Z,4.13
2022-11-22T13:38:17.735Z,9.38
2022-11-22T13:40:47.142Z,3.78
2022-11-22T13:43:17.994Z,4.82
2022-11-22T13:45:55.650Z,6.80
2022-11-22T13:48:40.802Z,2.90
2022-11-22T13:51:13.329Z,3.78
2022-11-22T13:53:42.661Z,4.45
2022-11-22T13:56:15.550Z,6.40
2022-11-22T13:58:51.076Z,5.72
2022-11-22T14:01:55.284Z,8.07
2022-11-22T14:04:26.666Z,9.25
2022-11-22T14:06:54.428Z,3.38
2022-11-22T14:09:42.357Z,4.72
2022-11-22T14:12:26.972Z,4.13
2022-11-22T14:14:59.807Z,3.83
2022-11-22T14:17:54.344Z,2.38
2022-11-22T14:20:27.233Z,5.40
2022-11-22T14:23:12.260Z,3.78
2022-11-22T14:25:58.495Z,3.67
2022-11-22T14:28:57.843Z,4.38
2022-11-22T14:31:28.652Z,4.97
2022-11-22T14:34:20.584Z,2.30
2022-11-22T14:37:10.331Z,6.53
2022-11-22T14:39:53.371Z,5.15
2022-11-22T14:42:47.199Z,4.07
2022-11-22T14:45:23.220Z,7.05
2022-11-22T14:47:53.639Z,6.57
2022-11-22T14:50:37.070Z,5.53
2022-11-22T14:53:27.864Z,6.20
2022-11-22T14:56:03.399Z,6.25
2022-11-22T15:01:21.879Z,5.63
2022-11-22T15:09:19.841Z,7.95
2022-11-22T15:09:21.292Z,3.75
2022-11-22T15:11:17.588Z,5.13
2022-11-22T15:14:02.296Z,4.78
2022-11-22T15:57:28.141Z,8.57
2022-11-22T15:59:55.642Z,4.97
2022-11-22T16:02:33.120Z,9.50
2022-11-22T16:06:04.400Z,8.07
2022-11-22T16:07:56.303Z,8.57
2022-11-22T16:10:37.187Z,11.52
2022-11-22T16:13:34.524Z,8.93
2022-11-22T16:16:17.428Z,9.75
2022-11-22T16:18:45.404Z,6.00
2022-11-22T16:21:12.171Z,7.30
2022-11-22T16:23:45.136Z,9.32
2022-11-22T16:26:18.018Z,10.07
2022-11-22T16:28:49.181Z,14.10
2022-11-22T16:31:26.226Z,9.82
2022-11-22T16:33:55.030Z,9.75
2022-11-22T16:36:23.561Z,11.85
2022-11-22T16:38:50.766Z,14.40
2022-11-22T16:41:27.861Z,13.50
2022-11-22T16:44:10.402Z,11.07
2022-11-22T16:46:37.218Z,12.25
2022-11-22T16:49:22.403Z,11.27
2022-11-22T16:51:50.927Z,15.85
2022-11-22T16:54:20.006Z,10.65
2022-11-22T16:56:47.294Z,11.48
2022-11-22T16:59:14.110Z,13.40
2022-11-22T17:01:43.252Z,16.58
2022-11-22T17:04:25.275Z,16.27
2022-11-22T17:06:52.610Z,12.70
2022-11-22T17:09:19.884Z,10.85
2022-11-22T17:11:47.048Z,10.40
2022-11-22T17:14:16.005Z,17.23
2022-11-22T17:16:42.956Z,12.98
2022-11-22T17:19:30.240Z,15.15
2022-11-22T17:21:57.028Z,20.83
2022-11-22T17:24:23.979Z,16.45
2022-11-22T17:26:50.799Z,13.18
2022-11-22T17:29:48.865Z,15.05
2022-11-22T17:32:04.872Z,12.65
2022-11-22T17:34:32.059Z,11.63
2022-11-22T17:36:59.066Z,12.25
2022-11-22T17:39:26.038Z,14.80
2022-11-22T17:41:53.032Z,14.90
2022-11-22T17:44:19.930Z,11.45
2022-11-22T17:46:47.281Z,16.05
2022-11-22T17:49:16.277Z,14.73
2022-11-22T17:51:43.684Z,12.88
2022-11-22T17:54:10.663Z,14.07
2022-11-22T17:56:37.652Z,13.05
2022-11-22T17:59:04.922Z,16.45
2022-11-22T18:01:32.138Z,14.65
2022-11-22T18:03:59.089Z,16.23
2022-11-22T18:06:26.485Z,13.20
2022-11-22T18:08:53.505Z,13.85
2022-11-22T18:11:20.473Z,12.00
2022-11-22T18:13:47.620Z,15.88
2022-11-22T18:16:17.271Z,15.50
2022-11-22T18:19:00.229Z,17.20
2022-11-22T18:21:32.149Z,14.60
2022-11-22T18:23:59.871Z,13.80
2022-11-22T18:26:43.003Z,17.95
2022-11-22T18:29:41.557Z,14.95
2022-11-22T18:31:59.566Z,16.45
2022-11-22T18:34:26.628Z,19.55
2022-11-22T18:36:56.458Z,12.50
2022-11-22T18:39:26.690Z,16.60
2022-11-22T18:41:53.662Z,14.77
2022-11-22T18:44:20.614Z,22.08
2022-11-22T18:46:48.032Z,13.07
2022-11-22T18:49:15.194Z,12.65
2022-11-22T18:51:42.146Z,15.23
2022-11-22T18:54:12.540Z,16.17
2022-11-22T18:56:40.728Z,12.30
2022-11-22T18:59:10.472Z,17.90
2022-11-22T19:01:37.634Z,14.45
2022-11-22T19:04:04.995Z,13.73
2022-11-22T19:06:32.274Z,16.88
2022-11-22T19:08:59.194Z,14.73
2022-11-22T19:11:28.417Z,16.38
2022-11-22T19:13:56.634Z,15.10
2022-11-22T19:16:23.907Z,15.20
2022-11-22T19:18:50.792Z,14.88
2022-11-22T19:21:19.789Z,13.10
2022-11-22T19:23:47.518Z,21.00
2022-11-22T19:26:20.493Z,18.80
2022-11-22T19:28:48.420Z,14.20
2022-11-22T19:31:17.527Z,17.88
2022-11-22T19:33:45.692Z,18.60
2022-11-22T19:36:15.198Z,13.27
2022-11-22T19:38:43.222Z,14.23
2022-11-22T19:41:11.705Z,12.40
2022-11-22T19:43:39.088Z,14.70
2022-11-22T19:46:06.910Z,15.10
2022-11-22T19:48:35.746Z,13.38
2022-11-22T19:51:11.025Z,14.77
2022-11-22T19:53:38.937Z,18.35
2022-11-22T19:56:07.935Z,15.88
2022-11-22T19:58:35.193Z,15.07
2022-11-22T20:01:10.601Z,17.02
2022-11-22T20:06:07.260Z,16.58
2022-11-22T20:08:34.924Z,20.60
2022-11-22T20:11:03.144Z,12.60
2022-11-22T20:13:30.331Z,14.38
2022-11-22T20:15:57.664Z,17.23
2022-11-22T20:18:24.757Z,14.80
2022-11-22T20:20:51.560Z,13.73
2022-11-22T20:23:19.710Z,12.25
2022-11-22T20:25:46.530Z,13.82
2022-11-22T20:28:13.396Z,14.60
2022-11-22T20:30:40.476Z,18.85
2022-11-22T20:33:07.502Z,15.80
2022-11-22T20:35:34.298Z,17.33
2022-11-22T20:38:01.356Z,19.15
2022-11-22T20:40:28.352Z,20.85
2022-11-22T20:42:55.236Z,19.52
2022-11-22T20:45:22.222Z,14.75
2022-11-22T20:47:49.130Z,17.77
2022-11-22T20:50:16.801Z,22.00
2022-11-22T20:52:43.686Z,21.65
2022-11-22T20:55:10.641Z,19.02
2022-11-22T20:57:38.419Z,19.95
2022-11-22T21:00:05.797Z,16.65
2022-11-22T21:02:34.592Z,20.08
2022-11-22T21:05:01.465Z,24.45
2022-11-22T21:07:28.427Z,17.33
2022-11-22T21:09:55.316Z,27.05
2022-11-22T21:12:22.186Z,19.55
2022-11-22T21:14:53.470Z,18.30
2022-11-22T21:17:41.971Z,23.40
2022-11-22T21:20:07.810Z,21.30
2022-11-22T21:22:34.668Z,22.92
2022-11-22T21:25:01.507Z,23.13
2022-11-22T21:27:28.469Z,22.48
2022-11-22T21:29:55.317Z,21.02
2022-11-22T21:32:22.110Z,19.10
2022-11-22T21:34:48.940Z,19.98
2022-11-22T21:37:15.873Z,20.45
2022-11-22T21:39:43.071Z,20.60
2022-11-22T21:42:10.373Z,26.75
2022-11-22T21:44:37.315Z,26.30
2022-11-22T21:47:04.091Z,20.67
2022-11-22T21:49:30.984Z,14.95
2022-11-22T21:51:59.021Z,22.00
2022-11-22T21:54:26.772Z,20.40
2022-11-22T21:56:54.909Z,17.15
2022-11-22T21:59:24.206Z,16.25
2022-11-22T22:01:50.985Z,15.18
2022-11-22T22:04:17.952Z,17.17
2022-11-22T22:06:46.229Z,21.70
2022-11-22T22:09:13.268Z,25.75
2022-11-22T22:11:41.858Z,18.88
2022-11-22T22:14:08.728Z,24.20
2022-11-22T22:16:35.575Z,23.65
2022-11-22T22:19:09.323Z,21.95
2022-11-22T22:21:36.586Z,17.25
2022-11-22T22:24:03.920Z,18.27
2022-11-22T22:26:32.146Z,19.25
2022-11-22T22:28:58.974Z,20.52
2022-11-22T22:31:26.935Z,27.23
2022-11-22T22:33:55.502Z,19.83
2022-11-22T22:36:24.346Z,15.77
2022-11-22T22:38:51.463Z,20.17
2022-11-22T22:41:18.698Z,19.40
2022-11-22T22:43:47.598Z,18.52
2022-11-22T22:46:19.908Z,20.20
2022-11-22T22:48:48.276Z,18.73
2022-11-22T22:51:17.920Z,19.80
2022-11-22T22:53:45.728Z,19.38
2022-11-22T22:56:14.191Z,23.23
2022-11-22T22:58:41.319Z,24.33
2022-11-22T23:01:17.576Z,23.15
2022-11-22T23:03:58.770Z,17.50
2022-11-22T23:06:30.755Z,19.02
2022-11-22T23:08:57.985Z,21.20
2022-11-22T23:11:46.583Z,28.85
2022-11-22T23:14:15.660Z,31.90
2022-11-22T23:16:42.623Z,29.58
2022-11-22T23:19:10.267Z,26.02
2022-11-22T23:21:37.230Z,24.15
2022-11-22T23:24:04.732Z,32.13
2022-11-22T23:26:31.877Z,27.23
2022-11-22T23:28:59.781Z,26.08
2022-11-22T23:31:27.305Z,20.77
2022-11-22T23:33:54.584Z,25.38
2022-11-22T23:36:22.764Z,25.63
2022-11-22T23:38:49.630Z,24.25
2022-11-22T23:41:22.022Z,27.92
2022-11-22T23:43:53.678Z,21.38
2022-11-22T23:46:21.177Z,15.90
2022-11-22T23:48:59.484Z,18.33
2022-11-22T23:51:28.074Z,28.80
2022-11-22T23:54:00.378Z,19.08
2022-11-22T23:56:28.474Z,23.40
2022-11-22T23:58:55.487Z,21.02
